sensor_id;sensor_type;location;lat;lon;timestamp;P1;durP1;ratioP1;P2;durP2;ratioP2
836;SDS011;400;53.550;9.932;2023-07-20T00:00:10;2.23;;;2.10;;
836;SDS011;400;53.550;9.932;2023-07-20T00:02:40;2.60;;;1.80;;
836;SDS011;400;53.550;9.932;2023-07-20T00:05:07;2.40;;;2.13;;
836;SDS011;400;53.550;9.932;2023-07-20T00:07:34;2.13;;;1.90;;
836;SDS011;400;53.550;9.932;2023-07-20T00:10:01;2.00;;;1.87;;
836;SDS011;400;53.550;9.932;2023-07-20T00:12:28;2.10;;;2.00;;
836;SDS011;400;53.550;9.932;2023-07-20T00:14:55;2.23;;;2.03;;
836;SDS011;400;53.550;9.932;2023-07-20T00:17:21;2.03;;;1.83;;
836;SDS011;400;53.550;9.932;2023-07-20T00:19:50;2.47;;;2.37;;
836;SDS011;400;53.550;9.932;2023-07-20T00:22:16;3.70;;;2.73;;
836;SDS011;400;53.550;9.932;2023-07-20T00:24:43;2.23;;;2.13;;
836;SDS011;400;53.550;9.932;2023-07-20T00:27:10;3.87;;;1.77;;
836;SDS011;400;53.550;9.932;2023-07-20T00:29:37;2.77;;;2.57;;
836;SDS011;400;53.550;9.932;2023-07-20T00:32:04;2.50;;;1.83;;
836;SDS011;400;53.550;9.932;2023-07-20T00:34:31;2.27;;;2.07;;
836;SDS011;400;53.550;9.932;2023-07-20T00:37:00;4.33;;;1.70;;
836;SDS011;400;53.550;9.932;2023-07-20T00:39:27;2.53;;;1.63;;
836;SDS011;400;53.550;9.932;2023-07-20T00:41:55;2.37;;;1.90;;
836;SDS011;400;53.550;9.932;2023-07-20T00:44:22;2.03;;;1.83;;
836;SDS011;400;53.550;9.932;2023-07-20T00:46:49;3.37;;;1.90;;
836;SDS011;400;53.550;9.932;2023-07-20T00:49:16;2.00;;;1.90;;
836;SDS011;400;53.550;9.932;2023-07-20T00:51:46;2.30;;;2.17;;
836;SDS011;400;53.550;9.932;2023-07-20T00:54:15;2.27;;;2.10;;
836;SDS011;400;53.550;9.932;2023-07-20T00:56:42;2.20;;;2.10;;
836;SDS011;400;53.550;9.932;2023-07-20T00:59:10;2.17;;;2.07;;
836;SDS011;400;53.550;9.932;2023-07-20T01:01:38;2.17;;;2.07;;
836;SDS011;400;53.550;9.932;2023-07-20T01:04:05;3.93;;;3.20;;
836;SDS011;400;53.550;9.932;2023-07-20T01:06:34;2.53;;;2.33;;
836;SDS011;400;53.550;9.932;2023-07-20T01:09:09;3.00;;;2.80;;
836;SDS011;400;53.550;9.932;2023-07-20T01:11:43;2.67;;;2.47;;
836;SDS011;400;53.550;9.932;2023-07-20T01:14:19;4.27;;;3.50;;
836;SDS011;400;53.550;9.932;2023-07-20T01:16:47;3.60;;;3.30;;
836;SDS011;400;53.550;9.932;2023-07-20T01:19:15;4.07;;;3.40;;
836;SDS011;400;53.550;9.932;2023-07-20T01:21:44;4.10;;;3.70;;
836;SDS011;400;53.550;9.932;2023-07-20T01:24:21;3.80;;;3.50;;
836;SDS011;400;53.550;9.932;2023-07-20T01:30:19;3.40;;;3.10;;
836;SDS011;400;53.550;9.932;2023-07-20T01:33:10;3.30;;;3.10;;
836;SDS011;400;53.550;9.932;2023-07-20T01:35:39;3.57;;;3.00;;
836;SDS011;400;53.550;9.932;2023-07-20T01:38:09;3.00;;;2.70;;
836;SDS011;400;53.550;9.932;2023-07-20T01:40:37;3.20;;;2.97;;
836;SDS011;400;53.550;9.932;2023-07-20T01:43:05;2.83;;;2.40;;
836;SDS011;400;53.550;9.932;2023-07-20T01:45:32;2.80;;;2.70;;
836;SDS011;400;53.550;9.932;2023-07-20T01:47:59;3.30;;;3.07;;
836;SDS011;400;53.550;9.932;2023-07-20T01:50:27;3.90;;;3.60;;
836;SDS011;400;53.550;9.932;2023-07-20T01:52:54;4.00;;;3.73;;
836;SDS011;400;53.550;9.932;2023-07-20T01:55:21;3.70;;;3.40;;
836;SDS011;400;53.550;9.932;2023-07-20T01:57:49;6.20;;;5.10;;
836;SDS011;400;53.550;9.932;2023-07-20T02:00:18;5.07;;;4.67;;
836;SDS011;400;53.550;9.932;2023-07-20T02:02:49;4.10;;;3.80;;
836;SDS011;400;53.550;9.932;2023-07-20T02:05:16;4.23;;;3.93;;
836;SDS011;400;53.550;9.932;2023-07-20T02:07:44;7.10;;;4.77;;
836;SDS011;400;53.550;9.932;2023-07-20T02:10:11;5.50;;;5.00;;
836;SDS011;400;53.550;9.932;2023-07-20T02:12:38;4.77;;;3.97;;
836;SDS011;400;53.550;9.932;2023-07-20T02:15:05;4.63;;;4.33;;
836;SDS011;400;53.550;9.932;2023-07-20T02:17:33;4.10;;;3.80;;
836;SDS011;400;53.550;9.932;2023-07-20T02:20:03;3.50;;;3.30;;
836;SDS011;400;53.550;9.932;2023-07-20T02:22:36;3.83;;;3.53;;
836;SDS011;400;53.550;9.932;2023-07-20T02:25:10;3.47;;;3.17;;
836;SDS011;400;53.550;9.932;2023-07-20T02:27:37;3.70;;;3.40;;
836;SDS011;400;53.550;9.932;2023-07-20T02:30:05;4.00;;;3.70;;
836;SDS011;400;53.550;9.932;2023-07-20T02:32:34;3.50;;;3.30;;
836;SDS011;400;53.550;9.932;2023-07-20T02:35:01;4.03;;;3.73;;
836;SDS011;400;53.550;9.932;2023-07-20T02:37:29;4.20;;;3.90;;
836;SDS011;400;53.550;9.932;2023-07-20T02:39:56;4.00;;;3.70;;
836;SDS011;400;53.550;9.932;2023-07-20T02:42:24;3.47;;;3.20;;
836;SDS011;400;53.550;9.932;2023-07-20T02:44:51;3.63;;;3.40;;
836;SDS011;400;53.550;9.932;2023-07-20T02:47:18;3.90;;;3.60;;
836;SDS011;400;53.550;9.932;2023-07-20T02:49:44;4.07;;;3.73;;
836;SDS011;400;53.550;9.932;2023-07-20T02:52:11;3.47;;;3.27;;
836;SDS011;400;53.550;9.932;2023-07-20T02:54:38;3.10;;;2.90;;
836;SDS011;400;53.550;9.932;2023-07-20T02:57:05;3.70;;;3.47;;
836;SDS011;400;53.550;9.932;2023-07-20T02:59:34;3.60;;;3.30;;
836;SDS011;400;53.550;9.932;2023-07-20T03:02:01;3.57;;;3.33;;
836;SDS011;400;53.550;9.932;2023-07-20T03:04:28;2.80;;;2.63;;
836;SDS011;400;53.550;9.932;2023-07-20T03:06:55;3.00;;;2.80;;
836;SDS011;400;53.550;9.932;2023-07-20T03:09:22;3.03;;;2.83;;
836;SDS011;400;53.550;9.932;2023-07-20T03:11:49;5.13;;;3.10;;
836;SDS011;400;53.550;9.932;2023-07-20T03:14:20;3.50;;;3.30;;
836;SDS011;400;53.550;9.932;2023-07-20T03:16:50;2.90;;;2.70;;
836;SDS011;400;53.550;9.932;2023-07-20T03:19:17;3.43;;;3.13;;
836;SDS011;400;53.550;9.932;2023-07-20T03:21:44;3.27;;;3.07;;
836;SDS011;400;53.550;9.932;2023-07-20T03:24:10;3.33;;;3.13;;
836;SDS011;400;53.550;9.932;2023-07-20T03:26:37;2.70;;;2.60;;
836;SDS011;400;53.550;9.932;2023-07-20T03:29:04;2.77;;;2.57;;
836;SDS011;400;53.550;9.932;2023-07-20T03:31:31;2.47;;;2.37;;
836;SDS011;400;53.550;9.932;2023-07-20T03:33:59;2.70;;;2.50;;
836;SDS011;400;53.550;9.932;2023-07-20T03:36:27;3.03;;;2.87;;
836;SDS011;400;53.550;9.932;2023-07-20T03:38:57;2.70;;;2.60;;
836;SDS011;400;53.550;9.932;2023-07-20T03:41:26;3.27;;;3.07;;
836;SDS011;400;53.550;9.932;2023-07-20T03:43:55;5.73;;;3.50;;
836;SDS011;400;53.550;9.932;2023-07-20T03:46:23;2.63;;;2.43;;
836;SDS011;400;53.550;9.932;2023-07-20T03:48:50;5.83;;;3.77;;
836;SDS011;400;53.550;9.932;2023-07-20T03:51:18;3.10;;;2.90;;
836;SDS011;400;53.550;9.932;2023-07-20T03:53:45;3.30;;;3.10;;
836;SDS011;400;53.550;9.932;2023-07-20T03:56:12;4.50;;;4.20;;
836;SDS011;400;53.550;9.932;2023-07-20T03:58:39;4.30;;;4.10;;
836;SDS011;400;53.550;9.932;2023-07-20T04:01:07;4.67;;;4.27;;
836;SDS011;400;53.550;9.932;2023-07-20T04:03:34;3.87;;;3.67;;
836;SDS011;400;53.550;9.932;2023-07-20T04:06:01;4.07;;;3.77;;
836;SDS011;400;53.550;9.932;2023-07-20T04:08:30;3.70;;;3.40;;
836;SDS011;400;53.550;9.932;2023-07-20T04:10:57;3.77;;;3.50;;
836;SDS011;400;53.550;9.932;2023-07-20T04:13:23;5.67;;;3.70;;
836;SDS011;400;53.550;9.932;2023-07-20T04:15:50;3.20;;;3.00;;
836;SDS011;400;53.550;9.932;2023-07-20T04:18:17;3.37;;;3.07;;
836;SDS011;400;53.550;9.932;2023-07-20T04:20:44;3.60;;;3.40;;
836;SDS011;400;53.550;9.932;2023-07-20T04:23:11;4.07;;;3.77;;
836;SDS011;400;53.550;9.932;2023-07-20T04:25:40;3.00;;;2.80;;
836;SDS011;400;53.550;9.932;2023-07-20T04:28:09;3.33;;;3.10;;
836;SDS011;400;53.550;9.932;2023-07-20T04:30:38;3.30;;;3.10;;
836;SDS011;400;53.550;9.932;2023-07-20T04:33:06;2.53;;;2.33;;
836;SDS011;400;53.550;9.932;2023-07-20T04:35:48;3.20;;;2.97;;
836;SDS011;400;53.550;9.932;2023-07-20T04:38:15;3.33;;;2.37;;
836;SDS011;400;53.550;9.932;2023-07-20T04:40:45;2.80;;;2.60;;
836;SDS011;400;53.550;9.932;2023-07-20T04:43:13;2.40;;;2.20;;
836;SDS011;400;53.550;9.932;2023-07-20T04:45:40;2.30;;;2.20;;
836;SDS011;400;53.550;9.932;2023-07-20T04:48:09;2.30;;;2.10;;
836;SDS011;400;53.550;9.932;2023-07-20T04:50:37;2.90;;;2.70;;
836;SDS011;400;53.550;9.932;2023-07-20T04:53:04;2.97;;;2.70;;
836;SDS011;400;53.550;9.932;2023-07-20T04:55:31;3.70;;;3.50;;
836;SDS011;400;53.550;9.932;2023-07-20T04:58:01;3.90;;;3.70;;
836;SDS011;400;53.550;9.932;2023-07-20T05:00:28;4.07;;;3.77;;
836;SDS011;400;53.550;9.932;2023-07-20T05:02:55;14.23;;;12.77;;
836;SDS011;400;53.550;9.932;2023-07-20T05:05:22;3.53;;;3.33;;
836;SDS011;400;53.550;9.932;2023-07-20T05:07:49;3.40;;;3.10;;
836;SDS011;400;53.550;9.932;2023-07-20T05:10:17;4.27;;;3.97;;
836;SDS011;400;53.550;9.932;2023-07-20T05:12:43;4.23;;;3.93;;
836;SDS011;400;53.550;9.932;2023-07-20T05:15:12;4.40;;;4.10;;
836;SDS011;400;53.550;9.932;2023-07-20T05:17:40;5.63;;;5.20;;
836;SDS011;400;53.550;9.932;2023-07-20T05:20:07;6.60;;;6.00;;
836;SDS011;400;53.550;9.932;2023-07-20T05:22:37;5.50;;;5.00;;
836;SDS011;400;53.550;9.932;2023-07-20T05:25:06;5.70;;;5.20;;
836;SDS011;400;53.550;9.932;2023-07-20T05:27:36;4.97;;;4.67;;
836;SDS011;400;53.550;9.932;2023-07-20T05:30:04;5.73;;;5.23;;
836;SDS011;400;53.550;9.932;2023-07-20T05:32:33;5.63;;;5.13;;
836;SDS011;400;53.550;9.932;2023-07-20T05:35:00;5.43;;;5.03;;
836;SDS011;400;53.550;9.932;2023-07-20T05:37:27;6.00;;;5.37;;
836;SDS011;400;53.550;9.932;2023-07-20T05:39:54;7.87;;;5.40;;
836;SDS011;400;53.550;9.932;2023-07-20T05:42:21;6.03;;;5.73;;
836;SDS011;400;53.550;9.932;2023-07-20T05:44:48;5.83;;;5.43;;
836;SDS011;400;53.550;9.932;2023-07-20T05:47:17;5.87;;;5.40;;
836;SDS011;400;53.550;9.932;2023-07-20T05:49:46;5.53;;;5.13;;
836;SDS011;400;53.550;9.932;2023-07-20T05:52:13;5.53;;;5.13;;
836;SDS011;400;53.550;9.932;2023-07-20T05:54:39;6.93;;;5.50;;
836;SDS011;400;53.550;9.932;2023-07-20T05:57:07;4.87;;;4.47;;
836;SDS011;400;53.550;9.932;2023-07-20T05:59:34;4.70;;;4.30;;
836;SDS011;400;53.550;9.932;2023-07-20T06:02:01;4.50;;;4.17;;
836;SDS011;400;53.550;9.932;2023-07-20T06:04:28;4.50;;;4.17;;
836;SDS011;400;53.550;9.932;2023-07-20T06:06:57;4.10;;;3.80;;
836;SDS011;400;53.550;9.932;2023-07-20T06:09:23;5.20;;;4.80;;
836;SDS011;400;53.550;9.932;2023-07-20T06:11:52;4.30;;;3.90;;
836;SDS011;400;53.550;9.932;2023-07-20T06:14:19;4.33;;;4.03;;
836;SDS011;400;53.550;9.932;2023-07-20T06:16:46;3.83;;;3.60;;
836;SDS011;400;53.550;9.932;2023-07-20T06:19:12;4.07;;;3.77;;
836;SDS011;400;53.550;9.932;2023-07-20T06:21:39;3.73;;;3.50;;
836;SDS011;400;53.550;9.932;2023-07-20T06:24:09;3.10;;;2.90;;
836;SDS011;400;53.550;9.932;2023-07-20T06:26:36;3.10;;;2.70;;
836;SDS011;400;53.550;9.932;2023-07-20T06:29:05;2.20;;;2.10;;
836;SDS011;400;53.550;9.932;2023-07-20T06:31:39;2.60;;;1.80;;
836;SDS011;400;53.550;9.932;2023-07-20T06:34:11;2.83;;;2.10;;
836;SDS011;400;53.550;9.932;2023-07-20T06:36:42;2.03;;;1.93;;
836;SDS011;400;53.550;9.932;2023-07-20T06:39:15;2.70;;;2.50;;
836;SDS011;400;53.550;9.932;2023-07-20T06:41:43;3.20;;;1.80;;
836;SDS011;400;53.550;9.932;2023-07-20T06:44:11;1.73;;;1.63;;
836;SDS011;400;53.550;9.932;2023-07-20T06:46:40;2.77;;;1.57;;
836;SDS011;400;53.550;9.932;2023-07-20T06:49:07;1.90;;;1.30;;
836;SDS011;400;53.550;9.932;2023-07-20T06:51:33;1.23;;;1.13;;
836;SDS011;400;53.550;9.932;2023-07-20T06:54:01;1.20;;;1.10;;
836;SDS011;400;53.550;9.932;2023-07-20T06:56:32;2.00;;;1.03;;
836;SDS011;400;53.550;9.932;2023-07-20T06:59:03;4.17;;;1.53;;
836;SDS011;400;53.550;9.932;2023-07-20T07:01:31;1.10;;;1.10;;
836;SDS011;400;53.550;9.932;2023-07-20T07:03:58;3.27;;;1.40;;
836;SDS011;400;53.550;9.932;2023-07-20T07:06:26;1.60;;;1.20;;
836;SDS011;400;53.550;9.932;2023-07-20T07:08:54;1.80;;;1.70;;
836;SDS011;400;53.550;9.932;2023-07-20T07:11:21;1.37;;;1.10;;
836;SDS011;400;53.550;9.932;2023-07-20T07:13:49;3.77;;;1.30;;
836;SDS011;400;53.550;9.932;2023-07-20T07:16:17;2.33;;;1.10;;
836;SDS011;400;53.550;9.932;2023-07-20T07:18:44;1.90;;;1.23;;
836;SDS011;400;53.550;9.932;2023-07-20T07:21:11;2.53;;;1.30;;
836;SDS011;400;53.550;9.932;2023-07-20T07:23:39;2.90;;;2.60;;
836;SDS011;400;53.550;9.932;2023-07-20T07:26:07;2.60;;;1.27;;
836;SDS011;400;53.550;9.932;2023-07-20T07:28:34;5.93;;;5.33;;
836;SDS011;400;53.550;9.932;2023-07-20T07:31:03;2.60;;;1.27;;
836;SDS011;400;53.550;9.932;2023-07-20T07:33:33;2.27;;;1.53;;
836;SDS011;400;53.550;9.932;2023-07-20T07:36:03;4.10;;;1.20;;
836;SDS011;400;53.550;9.932;2023-07-20T07:38:33;2.60;;;1.50;;
836;SDS011;400;53.550;9.932;2023-07-20T07:41:00;2.83;;;1.30;;
836;SDS011;400;53.550;9.932;2023-07-20T07:43:28;2.87;;;1.83;;
836;SDS011;400;53.550;9.932;2023-07-20T07:46:03;1.57;;;1.47;;
836;SDS011;400;53.550;9.932;2023-07-20T07:48:35;1.97;;;1.60;;
836;SDS011;400;53.550;9.932;2023-07-20T07:51:08;3.43;;;1.40;;
836;SDS011;400;53.550;9.932;2023-07-20T07:53:35;2.07;;;1.67;;
836;SDS011;400;53.550;9.932;2023-07-20T07:56:02;2.07;;;1.50;;
836;SDS011;400;53.550;9.932;2023-07-20T07:58:30;3.23;;;1.43;;
836;SDS011;400;53.550;9.932;2023-07-20T08:00:58;7.00;;;1.57;;
836;SDS011;400;53.550;9.932;2023-07-20T08:03:26;3.60;;;2.00;;
836;SDS011;400;53.550;9.932;2023-07-20T08:05:53;6.57;;;5.93;;
836;SDS011;400;53.550;9.932;2023-07-20T08:08:21;7.53;;;5.23;;
836;SDS011;400;53.550;9.932;2023-07-20T08:10:48;4.57;;;1.90;;
836;SDS011;400;53.550;9.932;2023-07-20T08:13:15;3.03;;;2.10;;
836;SDS011;400;53.550;9.932;2023-07-20T08:15:48;3.50;;;1.73;;
836;SDS011;400;53.550;9.932;2023-07-20T08:18:18;5.20;;;1.63;;
836;SDS011;400;53.550;9.932;2023-07-20T08:20:46;3.10;;;2.20;;
836;SDS011;400;53.550;9.932;2023-07-20T08:23:14;2.83;;;1.73;;
836;SDS011;400;53.550;9.932;2023-07-20T08:25:41;3.13;;;2.10;;
836;SDS011;400;53.550;9.932;2023-07-20T08:28:09;3.17;;;2.27;;
836;SDS011;400;53.550;9.932;2023-07-20T08:30:39;4.23;;;2.60;;
836;SDS011;400;53.550;9.932;2023-07-20T08:33:08;3.30;;;1.93;;
836;SDS011;400;53.550;9.932;2023-07-20T08:35:36;6.23;;;2.73;;
836;SDS011;400;53.550;9.932;2023-07-20T08:38:07;4.17;;;2.10;;
836;SDS011;400;53.550;9.932;2023-07-20T08:40:39;3.07;;;2.63;;
836;SDS011;400;53.550;9.932;2023-07-20T08:43:06;3.70;;;2.00;;
836;SDS011;400;53.550;9.932;2023-07-20T08:45:34;3.63;;;1.50;;
836;SDS011;400;53.550;9.932;2023-07-20T08:48:05;6.37;;;2.37;;
836;SDS011;400;53.550;9.932;2023-07-20T08:50:38;3.10;;;2.33;;
836;SDS011;400;53.550;9.932;2023-07-20T08:53:11;3.90;;;2.90;;
836;SDS011;400;53.550;9.932;2023-07-20T08:55:40;2.77;;;1.87;;
836;SDS011;400;53.550;9.932;2023-07-20T08:58:11;3.70;;;2.23;;
836;SDS011;400;53.550;9.932;2023-07-20T09:00:39;2.13;;;1.80;;
836;SDS011;400;53.550;9.932;2023-07-20T09:03:08;2.93;;;2.07;;
836;SDS011;400;53.550;9.932;2023-07-20T09:05:35;3.70;;;2.27;;
836;SDS011;400;53.550;9.932;2023-07-20T09:08:04;3.87;;;2.00;;
836;SDS011;400;53.550;9.932;2023-07-20T09:10:32;2.17;;;1.97;;
836;SDS011;400;53.550;9.932;2023-07-20T09:12:59;5.03;;;1.90;;
836;SDS011;400;53.550;9.932;2023-07-20T09:15:26;5.67;;;2.70;;
836;SDS011;400;53.550;9.932;2023-07-20T09:17:56;5.03;;;1.77;;
836;SDS011;400;53.550;9.932;2023-07-20T09:20:27;6.87;;;1.67;;
836;SDS011;400;53.550;9.932;2023-07-20T09:22:56;6.60;;;2.40;;
836;SDS011;400;53.550;9.932;2023-07-20T09:25:23;2.10;;;1.70;;
836;SDS011;400;53.550;9.932;2023-07-20T09:27:52;1.73;;;1.20;;
836;SDS011;400;53.550;9.932;2023-07-20T09:30:19;13.37;;;11.57;;
836;SDS011;400;53.550;9.932;2023-07-20T09:32:51;3.43;;;1.53;;
836;SDS011;400;53.550;9.932;2023-07-20T09:35:22;2.20;;;1.63;;
836;SDS011;400;53.550;9.932;2023-07-20T09:37:51;1.87;;;1.20;;
836;SDS011;400;53.550;9.932;2023-07-20T09:40:20;1.70;;;1.07;;
836;SDS011;400;53.550;9.932;2023-07-20T09:42:52;2.07;;;1.33;;
836;SDS011;400;53.550;9.932;2023-07-20T09:45:27;2.40;;;1.27;;
836;SDS011;400;53.550;9.932;2023-07-20T09:47:59;1.07;;;1.00;;
836;SDS011;400;53.550;9.932;2023-07-20T09:50:30;3.03;;;1.30;;
836;SDS011;400;53.550;9.932;2023-07-20T09:52:57;2.00;;;1.27;;
836;SDS011;400;53.550;9.932;2023-07-20T09:55:26;2.67;;;0.90;;
836;SDS011;400;53.550;9.932;2023-07-20T09:57:56;1.47;;;1.03;;
836;SDS011;400;53.550;9.932;2023-07-20T10:00:26;2.53;;;1.33;;
836;SDS011;400;53.550;9.932;2023-07-20T10:02:54;2.67;;;0.83;;
836;SDS011;400;53.550;9.932;2023-07-20T10:05:25;2.47;;;1.17;;
836;SDS011;400;53.550;9.932;2023-07-20T10:08:02;1.50;;;1.30;;
836;SDS011;400;53.550;9.932;2023-07-20T10:10:31;1.27;;;0.87;;
836;SDS011;400;53.550;9.932;2023-07-20T10:13:02;3.13;;;1.47;;
836;SDS011;400;53.550;9.932;2023-07-20T10:15:33;2.63;;;1.03;;
836;SDS011;400;53.550;9.932;2023-07-20T10:18:12;1.73;;;1.03;;
836;SDS011;400;53.550;9.932;2023-07-20T10:20:46;2.10;;;1.43;;
836;SDS011;400;53.550;9.932;2023-07-20T10:23:15;3.03;;;1.60;;
836;SDS011;400;53.550;9.932;2023-07-20T10:25:42;1.70;;;1.20;;
836;SDS011;400;53.550;9.932;2023-07-20T10:28:12;2.73;;;0.97;;
836;SDS011;400;53.550;9.932;2023-07-20T10:30:39;2.13;;;0.70;;
836;SDS011;400;53.550;9.932;2023-07-20T10:33:10;3.37;;;0.90;;
836;SDS011;400;53.550;9.932;2023-07-20T10:35:50;1.53;;;1.00;;
836;SDS011;400;53.550;9.932;2023-07-20T10:38:18;2.10;;;0.90;;
836;SDS011;400;53.550;9.932;2023-07-20T10:40:53;2.97;;;1.00;;
836;SDS011;400;53.550;9.932;2023-07-20T10:43:22;4.40;;;1.17;;
836;SDS011;400;53.550;9.932;2023-07-20T10:45:50;2.00;;;1.37;;
836;SDS011;400;53.550;9.932;2023-07-20T10:48:20;3.03;;;1.07;;
836;SDS011;400;53.550;9.932;2023-07-20T10:53:39;2.03;;;1.03;;
836;SDS011;400;53.550;9.932;2023-07-20T10:56:08;4.13;;;1.43;;
836;SDS011;400;53.550;9.932;2023-07-20T10:58:40;1.10;;;1.00;;
836;SDS011;400;53.550;9.932;2023-07-20T11:01:07;2.30;;;1.43;;
836;SDS011;400;53.550;9.932;2023-07-20T11:03:36;2.40;;;1.07;;
836;SDS011;400;53.550;9.932;2023-07-20T11:06:29;1.47;;;1.10;;
836;SDS011;400;53.550;9.932;2023-07-20T11:09:03;1.20;;;0.73;;
836;SDS011;400;53.550;9.932;2023-07-20T11:11:37;2.73;;;0.80;;
836;SDS011;400;53.550;9.932;2023-07-20T11:14:19;1.03;;;0.90;;
836;SDS011;400;53.550;9.932;2023-07-20T11:16:51;2.60;;;1.17;;
836;SDS011;400;53.550;9.932;2023-07-20T11:19:20;2.67;;;1.33;;
836;SDS011;400;53.550;9.932;2023-07-20T11:21:50;2.20;;;1.40;;
836;SDS011;400;53.550;9.932;2023-07-20T11:24:19;1.50;;;0.93;;
836;SDS011;400;53.550;9.932;2023-07-20T11:26:47;0.73;;;0.67;;
836;SDS011;400;53.550;9.932;2023-07-20T11:29:17;1.83;;;0.80;;
836;SDS011;400;53.550;9.932;2023-07-20T11:31:46;1.77;;;0.80;;
836;SDS011;400;53.550;9.932;2023-07-20T11:34:14;3.67;;;1.13;;
836;SDS011;400;53.550;9.932;2023-07-20T11:36:42;2.17;;;1.20;;
836;SDS011;400;53.550;9.932;2023-07-20T11:39:12;2.60;;;1.00;;
836;SDS011;400;53.550;9.932;2023-07-20T11:41:43;1.13;;;0.70;;
836;SDS011;400;53.550;9.932;2023-07-20T11:44:10;1.60;;;1.13;;
836;SDS011;400;53.550;9.932;2023-07-20T11:46:42;1.93;;;0.90;;
836;SDS011;400;53.550;9.932;2023-07-20T11:49:14;1.53;;;0.70;;
836;SDS011;400;53.550;9.932;2023-07-20T11:51:46;1.00;;;0.90;;
836;SDS011;400;53.550;9.932;2023-07-20T11:54:23;3.20;;;0.80;;
836;SDS011;400;53.550;9.932;2023-07-20T11:56:53;2.40;;;0.77;;
836;SDS011;400;53.550;9.932;2023-07-20T11:59:21;1.53;;;0.63;;
836;SDS011;400;53.550;9.932;2023-07-20T12:01:51;0.70;;;0.60;;
836;SDS011;400;53.550;9.932;2023-07-20T12:04:22;2.07;;;1.00;;
836;SDS011;400;53.550;9.932;2023-07-20T12:06:54;1.13;;;0.67;;
836;SDS011;400;53.550;9.932;2023-07-20T12:09:22;1.60;;;0.87;;
836;SDS011;400;53.550;9.932;2023-07-20T12:11:52;0.87;;;0.83;;
836;SDS011;400;53.550;9.932;2023-07-20T12:14:21;2.27;;;0.97;;
836;SDS011;400;53.550;9.932;2023-07-20T12:16:53;2.57;;;1.10;;
836;SDS011;400;53.550;9.932;2023-07-20T12:19:24;2.30;;;1.13;;
836;SDS011;400;53.550;9.932;2023-07-20T12:21:58;1.17;;;0.70;;
836;SDS011;400;53.550;9.932;2023-07-20T12:24:28;3.70;;;1.00;;
836;SDS011;400;53.550;9.932;2023-07-20T12:26:57;2.20;;;0.83;;
836;SDS011;400;53.550;9.932;2023-07-20T12:29:34;2.83;;;0.77;;
836;SDS011;400;53.550;9.932;2023-07-20T12:32:07;1.10;;;0.70;;
836;SDS011;400;53.550;9.932;2023-07-20T12:34:39;0.70;;;0.57;;
836;SDS011;400;53.550;9.932;2023-07-20T12:37:07;2.37;;;0.90;;
836;SDS011;400;53.550;9.932;2023-07-20T12:39:36;1.20;;;0.87;;
836;SDS011;400;53.550;9.932;2023-07-20T12:42:08;4.23;;;0.90;;
836;SDS011;400;53.550;9.932;2023-07-20T12:44:42;0.87;;;0.70;;
836;SDS011;400;53.550;9.932;2023-07-20T12:47:11;1.97;;;0.50;;
836;SDS011;400;53.550;9.932;2023-07-20T12:49:40;1.43;;;0.60;;
836;SDS011;400;53.550;9.932;2023-07-20T12:52:12;1.80;;;0.80;;
836;SDS011;400;53.550;9.932;2023-07-20T12:54:40;1.70;;;0.70;;
836;SDS011;400;53.550;9.932;2023-07-20T12:57:07;2.73;;;0.80;;
836;SDS011;400;53.550;9.932;2023-07-20T12:59:34;1.70;;;0.73;;
836;SDS011;400;53.550;9.932;2023-07-20T13:02:02;2.30;;;1.63;;
836;SDS011;400;53.550;9.932;2023-07-20T13:04:30;1.57;;;0.73;;
836;SDS011;400;53.550;9.932;2023-07-20T13:06:57;2.10;;;0.70;;
836;SDS011;400;53.550;9.932;2023-07-20T13:09:24;2.77;;;1.00;;
836;SDS011;400;53.550;9.932;2023-07-20T13:11:51;1.47;;;0.60;;
836;SDS011;400;53.550;9.932;2023-07-20T13:14:18;1.30;;;0.63;;
836;SDS011;400;53.550;9.932;2023-07-20T13:16:45;0.90;;;0.67;;
836;SDS011;400;53.550;9.932;2023-07-20T13:19:12;1.10;;;0.80;;
836;SDS011;400;53.550;9.932;2023-07-20T13:21:40;0.93;;;0.60;;
836;SDS011;400;53.550;9.932;2023-07-20T13:24:08;0.80;;;0.50;;
836;SDS011;400;53.550;9.932;2023-07-20T13:26:37;0.60;;;0.40;;
836;SDS011;400;53.550;9.932;2023-07-20T13:29:04;0.90;;;0.60;;
836;SDS011;400;53.550;9.932;2023-07-20T13:31:32;1.23;;;0.80;;
836;SDS011;400;53.550;9.932;2023-07-20T13:34:00;1.57;;;0.70;;
836;SDS011;400;53.550;9.932;2023-07-20T13:36:32;0.83;;;0.60;;
836;SDS011;400;53.550;9.932;2023-07-20T13:39:04;2.33;;;1.07;;
836;SDS011;400;53.550;9.932;2023-07-20T13:41:33;1.23;;;0.50;;
836;SDS011;400;53.550;9.932;2023-07-20T13:44:00;6.37;;;1.57;;
836;SDS011;400;53.550;9.932;2023-07-20T13:46:27;2.47;;;1.10;;
836;SDS011;400;53.550;9.932;2023-07-20T13:48:54;0.93;;;0.83;;
836;SDS011;400;53.550;9.932;2023-07-20T13:51:21;1.07;;;0.60;;
836;SDS011;400;53.550;9.932;2023-07-20T13:53:48;3.20;;;0.90;;
836;SDS011;400;53.550;9.932;2023-07-20T13:56:16;1.00;;;0.60;;
836;SDS011;400;53.550;9.932;2023-07-20T13:58:43;1.00;;;0.93;;
836;SDS011;400;53.550;9.932;2023-07-20T14:01:12;1.70;;;0.90;;
836;SDS011;400;53.550;9.932;2023-07-20T14:03:39;0.90;;;0.80;;
836;SDS011;400;53.550;9.932;2023-07-20T14:06:06;2.70;;;0.60;;
836;SDS011;400;53.550;9.932;2023-07-20T14:08:33;2.33;;;0.70;;
836;SDS011;400;53.550;9.932;2023-07-20T14:11:12;1.20;;;0.60;;
836;SDS011;400;53.550;9.932;2023-07-20T14:13:44;2.13;;;0.90;;
836;SDS011;400;53.550;9.932;2023-07-20T14:16:19;1.10;;;0.77;;
836;SDS011;400;53.550;9.932;2023-07-20T14:18:49;0.90;;;0.83;;
836;SDS011;400;53.550;9.932;2023-07-20T14:21:17;1.53;;;0.90;;
836;SDS011;400;53.550;9.932;2023-07-20T14:23:45;2.30;;;0.93;;
836;SDS011;400;53.550;9.932;2023-07-20T14:26:13;1.60;;;0.73;;
836;SDS011;400;53.550;9.932;2023-07-20T14:28:39;1.40;;;1.00;;
836;SDS011;400;53.550;9.932;2023-07-20T14:31:08;1.73;;;0.80;;
836;SDS011;400;53.550;9.932;2023-07-20T14:33:35;1.70;;;0.83;;
836;SDS011;400;53.550;9.932;2023-07-20T14:36:02;1.23;;;0.87;;
836;SDS011;400;53.550;9.932;2023-07-20T14:38:30;0.97;;;0.83;;
836;SDS011;400;53.550;9.932;2023-07-20T14:40:57;1.43;;;0.80;;
836;SDS011;400;53.550;9.932;2023-07-20T14:43:24;0.70;;;0.70;;
836;SDS011;400;53.550;9.932;2023-07-20T14:45:51;1.20;;;0.90;;
836;SDS011;400;53.550;9.932;2023-07-20T14:48:20;2.33;;;1.03;;
836;SDS011;400;53.550;9.932;2023-07-20T14:50:48;1.07;;;0.90;;
836;SDS011;400;53.550;9.932;2023-07-20T14:53:15;1.13;;;0.77;;
836;SDS011;400;53.550;9.932;2023-07-20T14:55:42;1.37;;;0.80;;
836;SDS011;400;53.550;9.932;2023-07-20T14:58:09;2.33;;;0.90;;
836;SDS011;400;53.550;9.932;2023-07-20T15:00:36;1.00;;;0.80;;
836;SDS011;400;53.550;9.932;2023-07-20T15:03:03;4.27;;;1.00;;
836;SDS011;400;53.550;9.932;2023-07-20T15:05:32;4.83;;;1.60;;
836;SDS011;400;53.550;9.932;2023-07-20T15:08:01;1.73;;;1.63;;
836;SDS011;400;53.550;9.932;2023-07-20T15:10:30;1.40;;;1.10;;
836;SDS011;400;53.550;9.932;2023-07-20T15:12:58;3.03;;;1.20;;
836;SDS011;400;53.550;9.932;2023-07-20T15:15:26;1.20;;;1.10;;
836;SDS011;400;53.550;9.932;2023-07-20T15:17:53;2.33;;;1.37;;
836;SDS011;400;53.550;9.932;2023-07-20T15:20:22;2.60;;;1.27;;
836;SDS011;400;53.550;9.932;2023-07-20T15:22:50;3.20;;;1.30;;
836;SDS011;400;53.550;9.932;2023-07-20T15:25:17;2.87;;;1.00;;
836;SDS011;400;53.550;9.932;2023-07-20T15:27:44;2.10;;;1.10;;
836;SDS011;400;53.550;9.932;2023-07-20T15:30:11;2.37;;;1.43;;
836;SDS011;400;53.550;9.932;2023-07-20T15:32:43;1.97;;;1.63;;
836;SDS011;400;53.550;9.932;2023-07-20T15:35:14;1.23;;;0.90;;
836;SDS011;400;53.550;9.932;2023-07-20T15:37:43;1.47;;;0.80;;
836;SDS011;400;53.550;9.932;2023-07-20T15:40:16;1.80;;;1.00;;
836;SDS011;400;53.550;9.932;2023-07-20T15:42:47;1.70;;;0.87;;
836;SDS011;400;53.550;9.932;2023-07-20T15:45:16;1.27;;;1.07;;
836;SDS011;400;53.550;9.932;2023-07-20T15:47:43;2.50;;;0.97;;
836;SDS011;400;53.550;9.932;2023-07-20T15:50:10;1.97;;;0.93;;
836;SDS011;400;53.550;9.932;2023-07-20T15:52:38;2.00;;;1.13;;
836;SDS011;400;53.550;9.932;2023-07-20T15:55:08;3.53;;;2.00;;
836;SDS011;400;53.550;9.932;2023-07-20T15:57:39;1.60;;;1.10;;
836;SDS011;400;53.550;9.932;2023-07-20T16:00:10;2.33;;;1.20;;